sensor_id;sensor_type;location;lat;lon;timestamp;temperature;humidity
5848;DHT22;8756;49.29324300;8.70599800;2023-01-26T00:01:12;1.60;99.90
5848;DHT22;8756;49.29324300;8.70599800;2023-01-26T00:03:39;1.60;99.90
5848;DHT22;8756;49.29324300;8.70599800;2023-01-26T00:06:06;1.60;99.90
5848;DHT22;8756;49.29324300;8.70599800;2023-01-26T00:08:44;1.60;99.90
5848;DHT22;8756;49.29324300;8.70599800;2023-01-26T00:11:17;1.60;99.90
5848;DHT22;8756;49.29324300;8.70599800;2023-01-26T00:13:49;1.60;99.90
5848;DHT22;8756;49.29324300;8.70599800;2023-01-26T00:16:15;1.60;99.90
5848;DHT22;8756;49.29324300;8.70599800;2023-01-26T00:18:42;1.70;99.90
5848;DHT22;8756;49.29324300;8.70599800;2023-01-26T00:21:15;1.60;99.90
5848;DHT22;8756;49.29324300;8.70599800;2023-01-26T00:23:42;1.60;99.90
5848;DHT22;8756;49.29324300;8.70599800;2023-01-26T00:26:10;1.60;99.90
5848;DHT22;8756;49.29324300;8.70599800;2023-01-26T00:28:42;1.60;99.90
5848;DHT22;8756;49.29324300;8.70599800;2023-01-26T00:31:12;1.70;99.90
5848;DHT22;8756;49.29324300;8.70599800;2023-01-26T00:33:39;1.70;99.90
5848;DHT22;8756;49.29324300;8.70599800;2023-01-26T00:36:05;1.60;99.90
5848;DHT22;8756;49.29324300;8.70599800;2023-01-26T00:38:31;1.70;99.90
5848;DHT22;8756;49.29324300;8.70599800;2023-01-26T00:40:57;1.70;99.90
5848;DHT22;8756;49.29324300;8.70599800;2023-01-26T00:43:23;1.70;99.90
5848;DHT22;8756;49.29324300;8.70599800;2023-01-26T00:45:48;1.80;99.90
5848;DHT22;8756;49.29324300;8.70599800;2023-01-26T00:48:15;1.70;99.90
5848;DHT22;8756;49.29324300;8.70599800;2023-01-26T00:50:40;1.70;99.90
5848;DHT22;8756;49.29324300;8.70599800;2023-01-26T00:53:06;1.70;99.90
5848;DHT22;8756;49.29324300;8.70599800;2023-01-26T00:55:32;1.70;99.90
5848;DHT22;8756;49.29324300;8.70599800;2023-01-26T00:57:58;1.70;99.90
5848;DHT22;8756;49.29324300;8.70599800;2023-01-26T01:00:25;1.70;99.90
5848;DHT22;8756;49.29324300;8.70599800;2023-01-26T01:02:51;1.70;99.90
5848;DHT22;8756;49.29324300;8.70599800;2023-01-26T01:05:17;1.80;99.90
5848;DHT22;8756;49.29324300;8.70599800;2023-01-26T01:07:43;1.80;99.90
5848;DHT22;8756;49.29324300;8.70599800;2023-01-26T01:10:09;1.90;99.90
5848;DHT22;8756;49.29324300;8.70599800;2023-01-26T01:12:35;1.90;99.90
5848;DHT22;8756;49.29324300;8.70599800;2023-01-26T01:15:00;1.90;99.90
5848;DHT22;8756;49.29324300;8.70599800;2023-01-26T01:17:26;1.80;99.90
5848;DHT22;8756;49.29324300;8.70599800;2023-01-26T01:19:52;1.80;99.90
5848;DHT22;8756;49.29324300;8.70599800;2023-01-26T01:22:18;1.80;99.90
5848;DHT22;8756;49.29324300;8.70599800;2023-01-26T01:24:43;1.80;99.90
5848;DHT22;8756;49.29324300;8.70599800;2023-01-26T01:27:09;1.80;99.90
5848;DHT22;8756;49.29324300;8.70599800;2023-01-26T01:29:35;1.90;99.90
5848;DHT22;8756;49.29324300;8.70599800;2023-01-26T01:32:01;1.90;99.90
5848;DHT22;8756;49.29324300;8.70599800;2023-01-26T01:34:26;1.90;99.90
5848;DHT22;8756;49.29324300;8.70599800;2023-01-26T01:36:52;2.00;99.90
5848;DHT22;8756;49.29324300;8.70599800;2023-01-26T01:39:18;1.90;99.90
5848;DHT22;8756;49.29324300;8.70599800;2023-01-26T01:41:43;2.00;99.90
5848;DHT22;8756;49.29324300;8.70599800;2023-01-26T01:44:18;2.00;99.90
5848;DHT22;8756;49.29324300;8.70599800;2023-01-26T01:46:49;2.00;99.90
5848;DHT22;8756;49.29324300;8.70599800;2023-01-26T01:49:33;1.90;99.90
5848;DHT22;8756;49.29324300;8.70599800;2023-01-26T01:52:21;1.80;99.90
5848;DHT22;8756;49.29324300;8.70599800;2023-01-26T01:54:59;1.70;99.90
5848;DHT22;8756;49.29324300;8.70599800;2023-01-26T01:58:07;1.80;99.90
5848;DHT22;8756;49.29324300;8.70599800;2023-01-26T02:00:26;1.80;99.90
5848;DHT22;8756;49.29324300;8.70599800;2023-01-26T02:02:59;1.90;99.90
5848;DHT22;8756;49.29324300;8.70599800;2023-01-26T02:06:21;1.90;99.90
5848;DHT22;8756;49.29324300;8.70599800;2023-01-26T02:08:52;1.90;99.90
5848;DHT22;8756;49.29324300;8.70599800;2023-01-26T02:11:26;1.90;99.90
5848;DHT22;8756;49.29324300;8.70599800;2023-01-26T02:13:55;1.80;99.90
5848;DHT22;8756;49.29324300;8.70599800;2023-01-26T02:16:22;1.80;99.90
5848;DHT22;8756;49.29324300;8.70599800;2023-01-26T02:18:48;1.90;99.90
5848;DHT22;8756;49.29324300;8.70599800;2023-01-26T02:21:19;1.90;99.90
5848;DHT22;8756;49.29324300;8.70599800;2023-01-26T02:24:00;1.90;99.90
5848;DHT22;8756;49.29324300;8.70599800;2023-01-26T02:26:33;1.90;99.90
5848;DHT22;8756;49.29324300;8.70599800;2023-01-26T02:29:00;1.90;99.90
5848;DHT22;8756;49.29324300;8.70599800;2023-01-26T02:31:28;1.90;99.90
5848;DHT22;8756;49.29324300;8.70599800;2023-01-26T02:33:54;1.90;99.90
5848;DHT22;8756;49.29324300;8.70599800;2023-01-26T02:36:25;1.70;99.90
5848;DHT22;8756;49.29324300;8.70599800;2023-01-26T02:41:37;1.60;99.90
5848;DHT22;8756;49.29324300;8.70599800;2023-01-26T02:44:21;1.60;99.90
5848;DHT22;8756;49.29324300;8.70599800;2023-01-26T02:46:47;1.60;99.90
5848;DHT22;8756;49.29324300;8.70599800;2023-01-26T02:49:12;1.50;99.90
5848;DHT22;8756;49.29324300;8.70599800;2023-01-26T02:51:56;1.50;99.90
5848;DHT22;8756;49.29324300;8.70599800;2023-01-26T02:54:22;1.50;99.90
5848;DHT22;8756;49.29324300;8.70599800;2023-01-26T02:57:06;1.60;99.90
5848;DHT22;8756;49.29324300;8.70599800;2023-01-26T02:59:32;1.50;99.90
5848;DHT22;8756;49.29324300;8.70599800;2023-01-26T03:01:58;1.60;99.90
5848;DHT22;8756;49.29324300;8.70599800;2023-01-26T03:04:24;1.70;99.90
5848;DHT22;8756;49.29324300;8.70599800;2023-01-26T03:06:49;1.70;99.90
5848;DHT22;8756;49.29324300;8.70599800;2023-01-26T03:09:15;1.80;99.90
5848;DHT22;8756;49.29324300;8.70599800;2023-01-26T03:11:41;1.80;99.90
5848;DHT22;8756;49.29324300;8.70599800;2023-01-26T03:14:08;1.80;99.90
5848;DHT22;8756;49.29324300;8.70599800;2023-01-26T03:16:35;1.80;99.90
5848;DHT22;8756;49.29324300;8.70599800;2023-01-26T03:19:03;1.90;99.90
5848;DHT22;8756;49.29324300;8.70599800;2023-01-26T03:21:58;1.80;99.90
5848;DHT22;8756;49.29324300;8.70599800;2023-01-26T03:24:42;1.80;99.90
5848;DHT22;8756;49.29324300;8.70599800;2023-01-26T03:27:27;1.80;99.90
5848;DHT22;8756;49.29324300;8.70599800;2023-01-26T03:29:55;1.80;99.90
5848;DHT22;8756;49.29324300;8.70599800;2023-01-26T03:32:21;1.80;99.90
5848;DHT22;8756;49.29324300;8.70599800;2023-01-26T03:34:47;1.80;99.90
5848;DHT22;8756;49.29324300;8.70599800;2023-01-26T03:37:13;1.80;99.90
5848;DHT22;8756;49.29324300;8.70599800;2023-01-26T03:39:39;1.80;99.90
5848;DHT22;8756;49.29324300;8.70599800;2023-01-26T03:42:23;1.70;99.90
5848;DHT22;8756;49.29324300;8.70599800;2023-01-26T03:45:07;1.60;99.90
5848;DHT22;8756;49.29324300;8.70599800;2023-01-26T03:47:51;1.60;99.90
5848;DHT22;8756;49.29324300;8.70599800;2023-01-26T03:50:35;1.60;99.90
5848;DHT22;8756;49.29324300;8.70599800;2023-01-26T03:53:23;1.60;99.90
5848;DHT22;8756;49.29324300;8.70599800;2023-01-26T03:56:09;1.60;99.90
5848;DHT22;8756;49.29324300;8.70599800;2023-01-26T03:58:53;1.60;99.90
5848;DHT22;8756;49.29324300;8.70599800;2023-01-26T04:01:22;1.50;99.90
5848;DHT22;8756;49.29324300;8.70599800;2023-01-26T04:03:55;1.50;99.90
5848;DHT22;8756;49.29324300;8.70599800;2023-01-26T04:06:43;1.50;99.90
5848;DHT22;8756;49.29324300;8.70599800;2023-01-26T04:09:30;1.50;99.90
5848;DHT22;8756;49.29324300;8.70599800;2023-01-26T04:11:56;1.40;99.90
5848;DHT22;8756;49.29324300;8.70599800;2023-01-26T04:14:22;1.40;99.90
5848;DHT22;8756;49.29324300;8.70599800;2023-01-26T04:17:06;1.40;99.90
5848;DHT22;8756;49.29324300;8.70599800;2023-01-26T04:19:50;1.40;99.90
5848;DHT22;8756;49.29324300;8.70599800;2023-01-26T04:22:39;1.50;99.90
5848;DHT22;8756;49.29324300;8.70599800;2023-01-26T04:25:12;1.50;99.90
5848;DHT22;8756;49.29324300;8.70599800;2023-01-26T04:27:40;1.40;99.90
5848;DHT22;8756;49.29324300;8.70599800;2023-01-26T04:30:08;1.40;99.90
5848;DHT22;8756;49.29324300;8.70599800;2023-01-26T04:32:35;1.50;99.90
5848;DHT22;8756;49.29324300;8.70599800;2023-01-26T04:35:01;1.50;99.90
5848;DHT22;8756;49.29324300;8.70599800;2023-01-26T04:37:26;1.40;99.90
5848;DHT22;8756;49.29324300;8.70599800;2023-01-26T04:39:52;1.40;99.90
5848;DHT22;8756;49.29324300;8.70599800;2023-01-26T04:42:18;1.40;99.90
5848;DHT22;8756;49.29324300;8.70599800;2023-01-26T04:44:43;1.40;99.90
5848;DHT22;8756;49.29324300;8.70599800;2023-01-26T04:47:09;1.40;99.90
5848;DHT22;8756;49.29324300;8.70599800;2023-01-26T04:49:35;1.40;99.90
5848;DHT22;8756;49.29324300;8.70599800;2023-01-26T04:52:00;1.40;99.90
5848;DHT22;8756;49.29324300;8.70599800;2023-01-26T04:54:26;1.40;99.90
5848;DHT22;8756;49.29324300;8.70599800;2023-01-26T04:56:52;1.40;99.90
5848;DHT22;8756;49.29324300;8.70599800;2023-01-26T04:59:17;1.40;99.90
5848;DHT22;8756;49.29324300;8.70599800;2023-01-26T05:01:43;1.30;99.90
5848;DHT22;8756;49.29324300;8.70599800;2023-01-26T05:04:10;1.30;99.90
5848;DHT22;8756;49.29324300;8.70599800;2023-01-26T05:06:39;1.30;99.90
5848;DHT22;8756;49.29324300;8.70599800;2023-01-26T05:09:06;1.30;99.90
5848;DHT22;8756;49.29324300;8.70599800;2023-01-26T05:11:32;1.30;99.90
5848;DHT22;8756;49.29324300;8.70599800;2023-01-26T05:13:58;1.30;99.90
5848;DHT22;8756;49.29324300;8.70599800;2023-01-26T05:16:24;1.30;99.90
5848;DHT22;8756;49.29324300;8.70599800;2023-01-26T05:18:50;1.30;99.90
5848;DHT22;8756;49.29324300;8.70599800;2023-01-26T05:21:16;1.30;99.90
5848;DHT22;8756;49.29324300;8.70599800;2023-01-26T05:23:42;1.30;99.90
5848;DHT22;8756;49.29324300;8.70599800;2023-01-26T05:26:07;1.40;99.90
5848;DHT22;8756;49.29324300;8.70599800;2023-01-26T05:28:34;1.40;99.90
5848;DHT22;8756;49.29324300;8.70599800;2023-01-26T05:31:00;1.40;99.90
5848;DHT22;8756;49.29324300;8.70599800;2023-01-26T05:33:26;1.40;99.90
5848;DHT22;8756;49.29324300;8.70599800;2023-01-26T05:35:53;1.40;99.90
5848;DHT22;8756;49.29324300;8.70599800;2023-01-26T05:38:18;1.40;99.90
5848;DHT22;8756;49.29324300;8.70599800;2023-01-26T05:40:45;1.30;99.90
5848;DHT22;8756;49.29324300;8.70599800;2023-01-26T05:43:11;1.30;99.90
5848;DHT22;8756;49.29324300;8.70599800;2023-01-26T05:45:40;1.30;99.90
5848;DHT22;8756;49.29324300;8.70599800;2023-01-26T05:48:06;1.40;99.90
5848;DHT22;8756;49.29324300;8.70599800;2023-01-26T05:50:32;1.40;99.90
5848;DHT22;8756;49.29324300;8.70599800;2023-01-26T05:52:58;1.40;99.90
5848;DHT22;8756;49.29324300;8.70599800;2023-01-26T05:55:25;1.40;99.90
5848;DHT22;8756;49.29324300;8.70599800;2023-01-26T05:57:51;1.30;99.90
5848;DHT22;8756;49.29324300;8.70599800;2023-01-26T06:00:17;1.40;99.90
5848;DHT22;8756;49.29324300;8.70599800;2023-01-26T06:02:45;1.40;99.90
5848;DHT22;8756;49.29324300;8.70599800;2023-01-26T06:05:11;1.40;99.90
5848;DHT22;8756;49.29324300;8.70599800;2023-01-26T06:07:36;1.40;99.90
5848;DHT22;8756;49.29324300;8.70599800;2023-01-26T06:10:03;1.30;99.90
5848;DHT22;8756;49.29324300;8.70599800;2023-01-26T06:12:29;1.40;99.90
5848;DHT22;8756;49.29324300;8.70599800;2023-01-26T06:15:00;1.40;99.90
5848;DHT22;8756;49.29324300;8.70599800;2023-01-26T06:17:26;1.40;99.90
5848;DHT22;8756;49.29324300;8.70599800;2023-01-26T06:19:52;1.30;99.90
5848;DHT22;8756;49.29324300;8.70599800;2023-01-26T06:22:18;1.30;99.90
5848;DHT22;8756;49.29324300;8.70599800;2023-01-26T06:24:43;1.30;99.90
5848;DHT22;8756;49.29324300;8.70599800;2023-01-26T06:27:14;1.30;99.90
5848;DHT22;8756;49.29324300;8.70599800;2023-01-26T06:29:41;1.30;99.90
5848;DHT22;8756;49.29324300;8.70599800;2023-01-26T06:32:09;1.30;99.90
5848;DHT22;8756;49.29324300;8.70599800;2023-01-26T06:34:36;1.30;99.90
5848;DHT22;8756;49.29324300;8.70599800;2023-01-26T06:37:01;1.30;99.90
5848;DHT22;8756;49.29324300;8.70599800;2023-01-26T06:39:28;1.30;99.90
5848;DHT22;8756;49.29324300;8.70599800;2023-01-26T06:41:55;1.20;99.90
5848;DHT22;8756;49.29324300;8.70599800;2023-01-26T06:44:20;1.30;99.90
5848;DHT22;8756;49.29324300;8.70599800;2023-01-26T06:46:46;1.30;99.90
5848;DHT22;8756;49.29324300;8.70599800;2023-01-26T06:49:12;1.20;99.90
5848;DHT22;8756;49.29324300;8.70599800;2023-01-26T06:54:13;1.20;99.90
5848;DHT22;8756;49.29324300;8.70599800;2023-01-26T06:56:40;1.20;99.90
5848;DHT22;8756;49.29324300;8.70599800;2023-01-26T06:59:06;1.10;99.90
5848;DHT22;8756;49.29324300;8.70599800;2023-01-26T07:01:37;1.10;99.90
5848;DHT22;8756;49.29324300;8.70599800;2023-01-26T07:04:04;1.10;99.90
5848;DHT22;8756;49.29324300;8.70599800;2023-01-26T07:06:30;1.10;99.90
5848;DHT22;8756;49.29324300;8.70599800;2023-01-26T07:08:55;1.10;99.90
5848;DHT22;8756;49.29324300;8.70599800;2023-01-26T07:11:21;1.10;99.90
5848;DHT22;8756;49.29324300;8.70599800;2023-01-26T07:13:48;1.10;99.90
5848;DHT22;8756;49.29324300;8.70599800;2023-01-26T07:16:15;1.10;99.90
5848;DHT22;8756;49.29324300;8.70599800;2023-01-26T07:18:41;1.10;99.90
5848;DHT22;8756;49.29324300;8.70599800;2023-01-26T07:21:13;1.10;99.90
5848;DHT22;8756;49.29324300;8.70599800;2023-01-26T07:23:42;1.10;99.90
5848;DHT22;8756;49.29324300;8.70599800;2023-01-26T07:26:08;1.10;99.90
5848;DHT22;8756;49.29324300;8.70599800;2023-01-26T07:28:34;1.10;99.90
5848;DHT22;8756;49.29324300;8.70599800;2023-01-26T07:31:00;1.10;99.90
5848;DHT22;8756;49.29324300;8.70599800;2023-01-26T07:33:31;1.10;99.90
5848;DHT22;8756;49.29324300;8.70599800;2023-01-26T07:35:58;1.10;99.90
5848;DHT22;8756;49.29324300;8.70599800;2023-01-26T07:38:24;1.10;99.90
5848;DHT22;8756;49.29324300;8.70599800;2023-01-26T07:40:51;1.10;99.90
5848;DHT22;8756;49.29324300;8.70599800;2023-01-26T07:43:17;1.10;99.90
5848;DHT22;8756;49.29324300;8.70599800;2023-01-26T07:45:47;1.10;99.90
5848;DHT22;8756;49.29324300;8.70599800;2023-01-26T07:48:21;1.10;99.90
5848;DHT22;8756;49.29324300;8.70599800;2023-01-26T07:50:48;1.10;99.90
5848;DHT22;8756;49.29324300;8.70599800;2023-01-26T07:53:16;1.10;99.90
5848;DHT22;8756;49.29324300;8.70599800;2023-01-26T07:55:47;1.10;99.90
5848;DHT22;8756;49.29324300;8.70599800;2023-01-26T07:58:13;1.10;99.90
5848;DHT22;8756;49.29324300;8.70599800;2023-01-26T08:00:39;1.10;99.90
5848;DHT22;8756;49.29324300;8.70599800;2023-01-26T08:03:05;1.10;99.90
5848;DHT22;8756;49.29324300;8.70599800;2023-01-26T08:05:31;1.10;99.90
5848;DHT22;8756;49.29324300;8.70599800;2023-01-26T08:07:59;1.10;99.90
5848;DHT22;8756;49.29324300;8.70599800;2023-01-26T08:10:25;1.10;99.90
5848;DHT22;8756;49.29324300;8.70599800;2023-01-26T08:12:51;1.20;99.90
5848;DHT22;8756;49.29324300;8.70599800;2023-01-26T08:15:17;1.10;99.90
5848;DHT22;8756;49.29324300;8.70599800;2023-01-26T08:17:43;1.10;99.90
5848;DHT22;8756;49.29324300;8.70599800;2023-01-26T08:20:09;1.20;99.90
5848;DHT22;8756;49.29324300;8.70599800;2023-01-26T08:22:36;1.10;99.90
5848;DHT22;8756;49.29324300;8.70599800;2023-01-26T08:25:02;1.20;99.90
5848;DHT22;8756;49.29324300;8.70599800;2023-01-26T08:27:28;1.20;99.90
5848;DHT22;8756;49.29324300;8.70599800;2023-01-26T08:29:54;1.20;99.90
5848;DHT22;8756;49.29324300;8.70599800;2023-01-26T08:32:20;1.10;99.90
5848;DHT22;8756;49.29324300;8.70599800;2023-01-26T08:34:46;1.20;99.90
5848;DHT22;8756;49.29324300;8.70599800;2023-01-26T08:37:11;1.20;99.90
5848;DHT22;8756;49.29324300;8.70599800;2023-01-26T08:39:37;1.20;99.90
5848;DHT22;8756;49.29324300;8.70599800;2023-01-26T08:42:03;1.20;99.90
5848;DHT22;8756;49.29324300;8.70599800;2023-01-26T08:44:28;1.20;99.90
5848;DHT22;8756;49.29324300;8.70599800;2023-01-26T08:46:54;1.20;99.90
5848;DHT22;8756;49.29324300;8.70599800;2023-01-26T08:49:19;1.20;99.90
5848;DHT22;8756;49.29324300;8.70599800;2023-01-26T08:51:45;1.20;99.90
5848;DHT22;8756;49.29324300;8.70599800;2023-01-26T08:54:11;1.20;99.90
5848;DHT22;8756;49.29324300;8.70599800;2023-01-26T08:56:37;1.10;99.90
5848;DHT22;8756;49.29324300;8.70599800;2023-01-26T08:59:02;1.20;99.90
5848;DHT22;8756;49.29324300;8.70599800;2023-01-26T09:01:28;1.10;99.90
5848;DHT22;8756;49.29324300;8.70599800;2023-01-26T09:03:54;1.10;99.90
5848;DHT22;8756;49.29324300;8.70599800;2023-01-26T09:06:21;1.10;99.90
5848;DHT22;8756;49.29324300;8.70599800;2023-01-26T09:08:47;1.10;99.90
5848;DHT22;8756;49.29324300;8.70599800;2023-01-26T09:11:12;1.10;99.90
5848;DHT22;8756;49.29324300;8.70599800;2023-01-26T09:13:39;1.10;99.90
5848;DHT22;8756;49.29324300;8.70599800;2023-01-26T09:16:06;1.10;99.90
5848;DHT22;8756;49.29324300;8.70599800;2023-01-26T09:18:33;1.10;99.90
5848;DHT22;8756;49.29324300;8.70599800;2023-01-26T09:21:07;1.10;99.90
5848;DHT22;8756;49.29324300;8.70599800;2023-01-26T09:23:34;1.10;99.90
5848;DHT22;8756;49.29324300;8.70599800;2023-01-26T09:26:01;1.10;99.90
5848;DHT22;8756;49.29324300;8.70599800;2023-01-26T09:28:27;1.10;99.90
5848;DHT22;8756;49.29324300;8.70599800;2023-01-26T09:30:54;1.10;99.90
5848;DHT22;8756;49.29324300;8.70599800;2023-01-26T09:33:20;1.10;99.90
5848;DHT22;8756;49.29324300;8.70599800;2023-01-26T09:35:47;1.10;99.90
5848;DHT22;8756;49.29324300;8.70599800;2023-01-26T09:38:13;1.10;99.90
5848;DHT22;8756;49.29324300;8.70599800;2023-01-26T09:40:47;1.10;99.90
5848;DHT22;8756;49.29324300;8.70599800;2023-01-26T09:43:38;1.20;99.90
5848;DHT22;8756;49.29324300;8.70599800;2023-01-26T09:51:40;1.10;99.90
5848;DHT22;8756;49.29324300;8.70599800;2023-01-26T09:56:42;1.10;99.90
5848;DHT22;8756;49.29324300;8.70599800;2023-01-26T09:59:37;1.10;99.90
5848;DHT22;8756;49.29324300;8.70599800;2023-01-26T10:05:01;1.00;99.90
5848;DHT22;8756;49.29324300;8.70599800;2023-01-26T10:07:31;1.00;99.90
5848;DHT22;8756;49.29324300;8.70599800;2023-01-26T10:09:58;1.00;99.90
5848;DHT22;8756;49.29324300;8.70599800;2023-01-26T10:12:35;1.00;99.90
5848;DHT22;8756;49.29324300;8.70599800;2023-01-26T10:15:23;1.00;99.90
5848;DHT22;8756;49.29324300;8.70599800;2023-01-26T10:17:59;1.00;99.90
5848;DHT22;8756;49.29324300;8.70599800;2023-01-26T10:20:45;1.00;99.90
5848;DHT22;8756;49.29324300;8.70599800;2023-01-26T10:23:26;1.00;99.90
5848;DHT22;8756;49.29324300;8.70599800;2023-01-26T10:25:57;1.00;99.90
5848;DHT22;8756;49.29324300;8.70599800;2023-01-26T10:28:32;0.90;99.90
5848;DHT22;8756;49.29324300;8.70599800;2023-01-26T10:31:03;0.90;99.90
5848;DHT22;8756;49.29324300;8.70599800;2023-01-26T10:33:34;0.90;99.90
5848;DHT22;8756;49.29324300;8.70599800;2023-01-26T10:36:02;0.90;99.90
5848;DHT22;8756;49.29324300;8.70599800;2023-01-26T10:43:40;0.90;99.90
5848;DHT22;8756;49.29324300;8.70599800;2023-01-26T10:46:26;0.90;99.90
5848;DHT22;8756;49.29324300;8.70599800;2023-01-26T10:49:21;0.90;99.90
5848;DHT22;8756;49.29324300;8.70599800;2023-01-26T10:52:17;0.90;99.90
5848;DHT22;8756;49.29324300;8.70599800;2023-01-26T10:54:48;0.90;99.90
5848;DHT22;8756;49.29324300;8.70599800;2023-01-26T10:57:26;0.90;99.90
5848;DHT22;8756;49.29324300;8.70599800;2023-01-26T11:00:02;0.90;99.90
5848;DHT22;8756;49.29324300;8.70599800;2023-01-26T11:02:35;0.90;99.90
5848;DHT22;8756;49.29324300;8.70599800;2023-01-26T11:07:38;0.90;99.90
5848;DHT22;8756;49.29324300;8.70599800;2023-01-26T11:10:24;0.90;99.90
5848;DHT22;8756;49.29324300;8.70599800;2023-01-26T11:13:04;0.90;99.90
5848;DHT22;8756;49.29324300;8.70599800;2023-01-26T11:15:40;0.90;99.90
5848;DHT22;8756;49.29324300;8.70599800;2023-01-26T11:20:55;0.90;99.90
5848;DHT22;8756;49.29324300;8.70599800;2023-01-26T11:37:39;0.90;99.90
5848;DHT22;8756;49.29324300;8.70599800;2023-01-26T11:40:46;1.00;99.90
5848;DHT22;8756;49.29324300;8.70599800;2023-01-26T11:46:25;1.10;99.90
5848;DHT22;8756;49.29324300;8.70599800;2023-01-26T11:49:24;1.10;99.90
5848;DHT22;8756;49.29324300;8.70599800;2023-01-26T11:52:26;1.10;99.90
5848;DHT22;8756;49.29324300;8.70599800;2023-01-26T11:55:22;1.00;99.90
5848;DHT22;8756;49.29324300;8.70599800;2023-01-26T12:01:09;1.00;99.90
5848;DHT22;8756;49.29324300;8.70599800;2023-01-26T12:03:45;1.00;99.90
5848;DHT22;8756;49.29324300;8.70599800;2023-01-26T12:06:36;1.00;99.90
5848;DHT22;8756;49.29324300;8.70599800;2023-01-26T12:09:22;1.00;99.90
5848;DHT22;8756;49.29324300;8.70599800;2023-01-26T12:12:09;1.00;99.90
5848;DHT22;8756;49.29324300;8.70599800;2023-01-26T12:20:41;1.00;99.90
5848;DHT22;8756;49.29324300;8.70599800;2023-01-26T12:25:56;1.10;99.90
5848;DHT22;8756;49.29324300;8.70599800;2023-01-26T12:28:32;1.10;99.90
5848;DHT22;8756;49.29324300;8.70599800;2023-01-26T12:33:53;1.10;99.90
5848;DHT22;8756;49.29324300;8.70599800;2023-01-26T12:44:45;1.20;99.90
5848;DHT22;8756;49.29324300;8.70599800;2023-01-26T12:50:23;1.10;99.90
5848;DHT22;8756;49.29324300;8.70599800;2023-01-26T12:53:01;1.10;99.90
5848;DHT22;8756;49.29324300;8.70599800;2023-01-26T12:55:47;1.10;99.90
5848;DHT22;8756;49.29324300;8.70599800;2023-01-26T12:58:23;1.10;99.90
5848;DHT22;8756;49.29324300;8.70599800;2023-01-26T13:01:10;1.10;99.90
5848;DHT22;8756;49.29324300;8.70599800;2023-01-26T13:06:22;1.10;99.90
5848;DHT22;8756;49.29324300;8.70599800;2023-01-26T13:17:39;1.20;99.90
5848;DHT22;8756;49.29324300;8.70599800;2023-01-26T13:20:47;1.20;99.90
5848;DHT22;8756;49.29324300;8.70599800;2023-01-26T13:26:14;1.10;99.90
5848;DHT22;8756;49.29324300;8.70599800;2023-01-26T13:28:46;1.10;99.90
5848;DHT22;8756;49.29324300;8.70599800;2023-01-26T13:31:12;1.10;99.90
5848;DHT22;8756;49.29324300;8.70599800;2023-01-26T13:33:39;1.00;99.90
5848;DHT22;8756;49.29324300;8.70599800;2023-01-26T13:36:13;1.10;99.90
5848;DHT22;8756;49.29324300;8.70599800;2023-01-26T13:38:58;1.10;99.90
5848;DHT22;8756;49.29324300;8.70599800;2023-01-26T13:41:26;1.00;99.90
5848;DHT22;8756;49.29324300;8.70599800;2023-01-26T13:43:56;1.00;99.90
5848;DHT22;8756;49.29324300;8.70599800;2023-01-26T13:46:41;1.00;99.90
5848;DHT22;8756;49.29324300;8.70599800;2023-01-26T13:49:26;1.00;99.90
5848;DHT22;8756;49.29324300;8.70599800;2023-01-26T13:52:01;0.90;99.90
5848;DHT22;8756;49.29324300;8.70599800;2023-01-26T13:54:28;1.00;99.90
5848;DHT22;8756;49.29324300;8.70599800;2023-01-26T13:57:05;1.00;99.90
5848;DHT22;8756;49.29324300;8.70599800;2023-01-26T13:59:31;0.90;99.90
5848;DHT22;8756;49.29324300;8.70599800;2023-01-26T14:01:58;0.90;99.90
5848;DHT22;8756;49.29324300;8.70599800;2023-01-26T14:04:29;0.90;99.90
5848;DHT22;8756;49.29324300;8.70599800;2023-01-26T14:09:34;0.90;99.90
5848;DHT22;8756;49.29324300;8.70599800;2023-01-26T14:12:16;0.90;99.90
5848;DHT22;8756;49.29324300;8.70599800;2023-01-26T14:14:47;0.90;99.90
5848;DHT22;8756;49.29324300;8.70599800;2023-01-26T14:17:31;0.90;99.90
5848;DHT22;8756;49.29324300;8.70599800;2023-01-26T14:19:59;0.90;99.90
5848;DHT22;8756;49.29324300;8.70599800;2023-01-26T14:22:28;0.90;99.90
5848;DHT22;8756;49.29324300;8.70599800;2023-01-26T14:24:54;0.90;99.90
5848;DHT22;8756;49.29324300;8.70599800;2023-01-26T14:27:29;0.90;99.90
5848;DHT22;8756;49.29324300;8.70599800;2023-01-26T14:30:19;0.90;99.90
5848;DHT22;8756;49.29324300;8.70599800;2023-01-26T14:33:11;0.90;99.90
5848;DHT22;8756;49.29324300;8.70599800;2023-01-26T14:35:38;0.90;99.90
5848;DHT22;8756;49.29324300;8.70599800;2023-01-26T14:40:45;0.90;99.90
5848;DHT22;8756;49.29324300;8.70599800;2023-01-26T14:43:13;0.90;99.90
5848;DHT22;8756;49.29324300;8.70599800;2023-01-26T14:45:44;0.90;99.90
5848;DHT22;8756;49.29324300;8.70599800;2023-01-26T14:49:01;0.90;99.90
5848;DHT22;8756;49.29324300;8.70599800;2023-01-26T14:51:32;0.90;99.90
5848;DHT22;8756;49.29324300;8.70599800;2023-01-26T14:54:02;0.80;99.90
5848;DHT22;8756;49.29324300;8.70599800;2023-01-26T14:56:45;0.80;99.90
5848;DHT22;8756;49.29324300;8.70599800;2023-01-26T14:59:24;0.80;99.90
5848;DHT22;8756;49.29324300;8.70599800;2023-01-26T15:02:14;0.80;99.90
5848;DHT22;8756;49.29324300;8.70599800;2023-01-26T15:04:45;0.80;99.90
5848;DHT22;8756;49.29324300;8.70599800;2023-01-26T15:07:37;0.80;99.90
5848;DHT22;8756;49.29324300;8.70599800;2023-01-26T15:15:44;0.80;99.90
5848;DHT22;8756;49.29324300;8.70599800;2023-01-26T15:21:27;0.80;99.90
5848;DHT22;8756;49.29324300;8.70599800;2023-01-26T15:23:35;0.80;99.90
5848;DHT22;8756;49.29324300;8.70599800;2023-01-26T15:26:15;0.80;99.90
5848;DHT22;8756;49.29324300;8.70599800;2023-01-26T15:28:50;0.80;99.90
5848;DHT22;8756;49.29324300;8.70599800;2023-01-26T15:31:53;0.80;99.90
5848;DHT22;8756;49.29324300;8.70599800;2023-01-26T15:34:36;0.80;99.90
5848;DHT22;8756;49.29324300;8.70599800;2023-01-26T15:37:29;0.80;99.90
5848;DHT22;8756;49.29324300;8.70599800;2023-01-26T15:39:56;0.80;99.90
5848;DHT22;8756;49.29324300;8.70599800;2023-01-26T15:42:23;0.80;99.90
5848;DHT22;8756;49.29324300;8.70599800;2023-01-26T15:44:55;0.80;99.90
5848;DHT22;8756;49.29324300;8.70599800;2023-01-26T15:47:21;0.80;99.90
5848;DHT22;8756;49.29324300;8.70599800;2023-01-26T15:49:47;0.80;99.90
5848;DHT22;8756;49.29324300;8.70599800;2023-01-26T15:52:14;0.80;99.90
5848;DHT22;8756;49.29324300;8.70599800;2023-01-26T15:54:41;0.80;99.90
5848;DHT22;8756;49.29324300;8.70599800;2023-01-26T15:57:12;0.80;99.90
5848;DHT22;8756;49.29324300;8.70599800;2023-01-26T15:59:38;0.80;99.90